sensor_id;sensor_type;location;lat;lon;timestamp;P1;durP1;ratioP1;P2;durP2;ratioP2
76731;SDS011;65656;51.130;13.658;2022-12-24T00:02:23;7.63;;;7.15;;
76731;SDS011;65656;51.130;13.658;2022-12-24T00:06:25;6.57;;;6.15;;
76731;SDS011;65656;51.130;13.658;2022-12-24T00:10:26;7.07;;;6.65;;
76731;SDS011;65656;51.130;13.658;2022-12-24T00:14:28;6.35;;;5.80;;
76731;SDS011;65656;51.130;13.658;2022-12-24T00:18:30;10.52;;;9.80;;
76731;SDS011;65656;51.130;13.658;2022-12-24T00:22:32;6.80;;;6.38;;
76731;SDS011;65656;51.130;13.658;2022-12-24T00:26:33;12.13;;;11.40;;
76731;SDS011;65656;51.130;13.658;2022-12-24T00:30:36;6.30;;;5.88;;
76731;SDS011;65656;51.130;13.658;2022-12-24T00:34:39;7.05;;;6.50;;
76731;SDS011;65656;51.130;13.658;2022-12-24T00:38:40;5.55;;;5.03;;
76731;SDS011;65656;51.130;13.658;2022-12-24T00:42:42;12.60;;;12.00;;
76731;SDS011;65656;51.130;13.658;2022-12-24T00:46:44;10.30;;;9.75;;
76731;SDS011;65656;51.130;13.658;2022-12-24T00:50:47;6.85;;;6.30;;
76731;SDS011;65656;51.130;13.658;2022-12-24T00:54:49;10.52;;;9.88;;
76731;SDS011;65656;51.130;13.658;2022-12-24T00:58:50;6.53;;;5.88;;
76731;SDS011;65656;51.130;13.658;2022-12-24T01:02:52;6.25;;;5.72;;
76731;SDS011;65656;51.130;13.658;2022-12-24T01:06:55;5.47;;;5.05;;
76731;SDS011;65656;51.130;13.658;2022-12-24T01:10:57;11.55;;;10.85;;
76731;SDS011;65656;51.130;13.658;2022-12-24T01:14:58;5.93;;;3.45;;
76731;SDS011;65656;51.130;13.658;2022-12-24T01:19:00;10.60;;;9.73;;
76731;SDS011;65656;51.130;13.658;2022-12-24T01:23:03;7.90;;;6.97;;
76731;SDS011;65656;51.130;13.658;2022-12-24T01:27:04;8.00;;;7.30;;
76731;SDS011;65656;51.130;13.658;2022-12-24T01:31:09;7.63;;;6.95;;
76731;SDS011;65656;51.130;13.658;2022-12-24T01:35:11;9.65;;;8.85;;
76731;SDS011;65656;51.130;13.658;2022-12-24T01:39:14;14.95;;;13.90;;
76731;SDS011;65656;51.130;13.658;2022-12-24T01:43:16;13.63;;;12.43;;
76731;SDS011;65656;51.130;13.658;2022-12-24T01:47:20;10.80;;;9.82;;
76731;SDS011;65656;51.130;13.658;2022-12-24T01:51:25;10.45;;;9.02;;
76731;SDS011;65656;51.130;13.658;2022-12-24T01:55:31;11.40;;;10.60;;
76731;SDS011;65656;51.130;13.658;2022-12-24T01:59:33;10.05;;;8.73;;
76731;SDS011;65656;51.130;13.658;2022-12-24T02:03:36;11.90;;;9.55;;
76731;SDS011;65656;51.130;13.658;2022-12-24T02:07:38;9.35;;;8.40;;
76731;SDS011;65656;51.130;13.658;2022-12-24T02:11:42;9.15;;;8.23;;
76731;SDS011;65656;51.130;13.658;2022-12-24T02:15:49;15.23;;;13.73;;
76731;SDS011;65656;51.130;13.658;2022-12-24T02:24:52;11.93;;;11.15;;
76731;SDS011;65656;51.130;13.658;2022-12-24T02:29:10;18.85;;;17.52;;
76731;SDS011;65656;51.130;13.658;2022-12-24T02:33:25;4.88;;;4.38;;
76731;SDS011;65656;51.130;13.658;2022-12-24T02:37:32;12.05;;;11.13;;
76731;SDS011;65656;51.130;13.658;2022-12-24T02:45:41;12.07;;;9.95;;
76731;SDS011;65656;51.130;13.658;2022-12-24T02:49:48;7.47;;;6.82;;
76731;SDS011;65656;51.130;13.658;2022-12-24T02:53:49;7.05;;;6.35;;
76731;SDS011;65656;51.130;13.658;2022-12-24T02:58:00;9.65;;;8.98;;
76731;SDS011;65656;51.130;13.658;2022-12-24T03:02:12;7.53;;;6.88;;
76731;SDS011;65656;51.130;13.658;2022-12-24T03:06:29;7.45;;;4.85;;
76731;SDS011;65656;51.130;13.658;2022-12-24T03:10:40;6.05;;;4.80;;
76731;SDS011;65656;51.130;13.658;2022-12-24T03:14:51;8.20;;;7.38;;
76731;SDS011;65656;51.130;13.658;2022-12-24T03:18:54;7.95;;;5.57;;
76731;SDS011;65656;51.130;13.658;2022-12-24T03:22:59;7.38;;;5.95;;
76731;SDS011;65656;51.130;13.658;2022-12-24T03:27:00;11.70;;;9.43;;
76731;SDS011;65656;51.130;13.658;2022-12-24T03:31:03;7.63;;;5.65;;
76731;SDS011;65656;51.130;13.658;2022-12-24T03:35:06;9.13;;;7.25;;
76731;SDS011;65656;51.130;13.658;2022-12-24T03:39:09;8.60;;;7.72;;
76731;SDS011;65656;51.130;13.658;2022-12-24T03:43:11;19.13;;;16.20;;
76731;SDS011;65656;51.130;13.658;2022-12-24T03:47:12;8.23;;;7.70;;
76731;SDS011;65656;51.130;13.658;2022-12-24T03:51:16;10.10;;;9.20;;
76731;SDS011;65656;51.130;13.658;2022-12-24T03:55:19;9.95;;;9.05;;
76731;SDS011;65656;51.130;13.658;2022-12-24T03:59:21;7.78;;;7.18;;
76731;SDS011;65656;51.130;13.658;2022-12-24T04:03:22;6.30;;;5.70;;
76731;SDS011;65656;51.130;13.658;2022-12-24T04:07:24;6.70;;;5.30;;
76731;SDS011;65656;51.130;13.658;2022-12-24T04:11:27;5.75;;;4.68;;
76731;SDS011;65656;51.130;13.658;2022-12-24T04:15:28;7.03;;;6.50;;
76731;SDS011;65656;51.130;13.658;2022-12-24T04:19:29;9.50;;;8.77;;
76731;SDS011;65656;51.130;13.658;2022-12-24T04:23:31;6.90;;;6.35;;
76731;SDS011;65656;51.130;13.658;2022-12-24T04:27:36;6.47;;;5.05;;
76731;SDS011;65656;51.130;13.658;2022-12-24T04:31:38;9.00;;;8.23;;
76731;SDS011;65656;51.130;13.658;2022-12-24T04:35:39;15.65;;;14.80;;
76731;SDS011;65656;51.130;13.658;2022-12-24T04:39:41;10.80;;;10.10;;
76731;SDS011;65656;51.130;13.658;2022-12-24T04:43:44;8.48;;;7.85;;
76731;SDS011;65656;51.130;13.658;2022-12-24T04:47:45;7.57;;;6.93;;
76731;SDS011;65656;51.130;13.658;2022-12-24T04:51:47;7.97;;;7.20;;
76731;SDS011;65656;51.130;13.658;2022-12-24T04:55:49;9.25;;;8.68;;
76731;SDS011;65656;51.130;13.658;2022-12-24T04:59:52;7.70;;;6.30;;
76731;SDS011;65656;51.130;13.658;2022-12-24T05:03:53;8.27;;;7.47;;
76731;SDS011;65656;51.130;13.658;2022-12-24T05:07:55;7.15;;;6.55;;
76731;SDS011;65656;51.130;13.658;2022-12-24T05:11:56;13.38;;;12.50;;
76731;SDS011;65656;51.130;13.658;2022-12-24T05:15:59;6.10;;;4.13;;
76731;SDS011;65656;51.130;13.658;2022-12-24T05:20:01;10.98;;;10.27;;
76731;SDS011;65656;51.130;13.658;2022-12-24T05:24:02;11.48;;;10.73;;
76731;SDS011;65656;51.130;13.658;2022-12-24T05:28:04;13.30;;;12.13;;
76731;SDS011;65656;51.130;13.658;2022-12-24T05:32:07;8.15;;;5.50;;
76731;SDS011;65656;51.130;13.658;2022-12-24T05:36:08;12.68;;;11.45;;
76731;SDS011;65656;51.130;13.658;2022-12-24T05:40:10;12.07;;;10.98;;
76731;SDS011;65656;51.130;13.658;2022-12-24T05:44:12;8.50;;;7.70;;
76731;SDS011;65656;51.130;13.658;2022-12-24T05:48:16;10.90;;;10.07;;
76731;SDS011;65656;51.130;13.658;2022-12-24T05:52:17;7.10;;;6.35;;
76731;SDS011;65656;51.130;13.658;2022-12-24T05:56:19;8.13;;;6.70;;
76731;SDS011;65656;51.130;13.658;2022-12-24T06:00:22;9.18;;;5.63;;
76731;SDS011;65656;51.130;13.658;2022-12-24T06:04:25;9.30;;;8.48;;
76731;SDS011;65656;51.130;13.658;2022-12-24T06:08:29;4.95;;;4.03;;
76731;SDS011;65656;51.130;13.658;2022-12-24T06:12:32;6.30;;;4.85;;
76731;SDS011;65656;51.130;13.658;2022-12-24T06:16:33;7.93;;;7.13;;
76731;SDS011;65656;51.130;13.658;2022-12-24T06:20:36;7.88;;;7.35;;
76731;SDS011;65656;51.130;13.658;2022-12-24T06:24:37;7.72;;;7.00;;
76731;SDS011;65656;51.130;13.658;2022-12-24T06:28:39;6.53;;;5.15;;
76731;SDS011;65656;51.130;13.658;2022-12-24T06:32:40;7.35;;;5.28;;
76731;SDS011;65656;51.130;13.658;2022-12-24T06:36:43;9.35;;;8.63;;
76731;SDS011;65656;51.130;13.658;2022-12-24T06:40:45;8.45;;;7.35;;
76731;SDS011;65656;51.130;13.658;2022-12-24T06:44:46;9.45;;;8.80;;
76731;SDS011;65656;51.130;13.658;2022-12-24T06:48:48;23.30;;;22.10;;
76731;SDS011;65656;51.130;13.658;2022-12-24T06:52:51;5.38;;;4.80;;
76731;SDS011;65656;51.130;13.658;2022-12-24T06:56:52;9.82;;;8.80;;
76731;SDS011;65656;51.130;13.658;2022-12-24T07:00:59;5.25;;;3.38;;
76731;SDS011;65656;51.130;13.658;2022-12-24T07:05:01;6.65;;;6.00;;
76731;SDS011;65656;51.130;13.658;2022-12-24T07:09:03;7.68;;;6.97;;
76731;SDS011;65656;51.130;13.658;2022-12-24T07:13:05;6.13;;;5.28;;
76731;SDS011;65656;51.130;13.658;2022-12-24T07:17:06;6.80;;;5.78;;
76731;SDS011;65656;51.130;13.658;2022-12-24T07:21:08;6.85;;;6.30;;
76731;SDS011;65656;51.130;13.658;2022-12-24T07:25:11;10.35;;;9.50;;
76731;SDS011;65656;51.130;13.658;2022-12-24T07:29:12;7.85;;;6.30;;
76731;SDS011;65656;51.130;13.658;2022-12-24T07:33:14;8.18;;;6.53;;
76731;SDS011;65656;51.130;13.658;2022-12-24T07:37:15;10.25;;;8.32;;
76731;SDS011;65656;51.130;13.658;2022-12-24T07:41:18;8.85;;;4.70;;
76731;SDS011;65656;51.130;13.658;2022-12-24T07:45:20;9.25;;;8.52;;
76731;SDS011;65656;51.130;13.658;2022-12-24T07:49:21;8.00;;;6.65;;
76731;SDS011;65656;51.130;13.658;2022-12-24T07:53:22;8.57;;;5.55;;
76731;SDS011;65656;51.130;13.658;2022-12-24T07:57:26;10.68;;;7.35;;
76731;SDS011;65656;51.130;13.658;2022-12-24T08:01:27;7.13;;;4.90;;
76731;SDS011;65656;51.130;13.658;2022-12-24T08:05:32;7.05;;;3.08;;
76731;SDS011;65656;51.130;13.658;2022-12-24T08:09:34;10.65;;;9.85;;
76731;SDS011;65656;51.130;13.658;2022-12-24T08:13:38;8.68;;;6.88;;
76731;SDS011;65656;51.130;13.658;2022-12-24T08:17:39;10.75;;;9.75;;
76731;SDS011;65656;51.130;13.658;2022-12-24T08:21:41;7.53;;;5.35;;
76731;SDS011;65656;51.130;13.658;2022-12-24T08:25:42;11.45;;;10.40;;
76731;SDS011;65656;51.130;13.658;2022-12-24T08:29:46;11.20;;;10.15;;
76731;SDS011;65656;51.130;13.658;2022-12-24T08:33:47;10.32;;;9.13;;
76731;SDS011;65656;51.130;13.658;2022-12-24T08:37:49;7.32;;;6.65;;
76731;SDS011;65656;51.130;13.658;2022-12-24T08:41:50;9.65;;;6.30;;
76731;SDS011;65656;51.130;13.658;2022-12-24T08:45:53;11.15;;;9.70;;
76731;SDS011;65656;51.130;13.658;2022-12-24T08:49:55;8.65;;;8.02;;
76731;SDS011;65656;51.130;13.658;2022-12-24T08:53:56;8.85;;;8.10;;
76731;SDS011;65656;51.130;13.658;2022-12-24T08:57:58;10.73;;;9.98;;
76731;SDS011;65656;51.130;13.658;2022-12-24T09:02:01;11.98;;;9.35;;
76731;SDS011;65656;51.130;13.658;2022-12-24T09:06:03;6.28;;;4.82;;
76731;SDS011;65656;51.130;13.658;2022-12-24T09:10:05;13.70;;;12.93;;
76731;SDS011;65656;51.130;13.658;2022-12-24T09:14:08;7.63;;;5.90;;
76731;SDS011;65656;51.130;13.658;2022-12-24T09:18:11;8.73;;;6.25;;
76731;SDS011;65656;51.130;13.658;2022-12-24T09:22:12;13.10;;;10.68;;
76731;SDS011;65656;51.130;13.658;2022-12-24T09:26:15;9.02;;;6.68;;
76731;SDS011;65656;51.130;13.658;2022-12-24T09:30:17;9.43;;;8.38;;
76731;SDS011;65656;51.130;13.658;2022-12-24T09:34:20;10.15;;;7.68;;
76731;SDS011;65656;51.130;13.658;2022-12-24T09:38:30;11.77;;;10.85;;
76731;SDS011;65656;51.130;13.658;2022-12-24T09:42:36;12.23;;;9.32;;
76731;SDS011;65656;51.130;13.658;2022-12-24T09:46:47;7.00;;;6.13;;
76731;SDS011;65656;51.130;13.658;2022-12-24T09:50:53;8.43;;;5.30;;
76731;SDS011;65656;51.130;13.658;2022-12-24T09:55:03;7.68;;;6.38;;
76731;SDS011;65656;51.130;13.658;2022-12-24T09:59:09;7.85;;;5.97;;
76731;SDS011;65656;51.130;13.658;2022-12-24T10:03:13;10.68;;;5.13;;
76731;SDS011;65656;51.130;13.658;2022-12-24T10:07:21;9.27;;;8.55;;
76731;SDS011;65656;51.130;13.658;2022-12-24T10:11:35;10.73;;;10.00;;
76731;SDS011;65656;51.130;13.658;2022-12-24T10:15:45;11.25;;;10.00;;
76731;SDS011;65656;51.130;13.658;2022-12-24T10:19:55;7.43;;;3.95;;
76731;SDS011;65656;51.130;13.658;2022-12-24T10:24:09;13.30;;;12.35;;
76731;SDS011;65656;51.130;13.658;2022-12-24T10:28:17;7.72;;;6.35;;
76731;SDS011;65656;51.130;13.658;2022-12-24T10:32:24;12.02;;;11.05;;
76731;SDS011;65656;51.130;13.658;2022-12-24T10:36:29;9.82;;;6.47;;
76731;SDS011;65656;51.130;13.658;2022-12-24T10:40:34;8.00;;;6.90;;
76731;SDS011;65656;51.130;13.658;2022-12-24T10:44:40;12.05;;;10.95;;
76731;SDS011;65656;51.130;13.658;2022-12-24T10:48:47;9.23;;;5.60;;
76731;SDS011;65656;51.130;13.658;2022-12-24T10:52:54;8.43;;;5.60;;
76731;SDS011;65656;51.130;13.658;2022-12-24T10:57:02;10.68;;;7.25;;
76731;SDS011;65656;51.130;13.658;2022-12-24T11:01:04;8.10;;;5.57;;
76731;SDS011;65656;51.130;13.658;2022-12-24T11:05:06;11.68;;;10.85;;
76731;SDS011;65656;51.130;13.658;2022-12-24T11:09:27;12.95;;;11.45;;
76731;SDS011;65656;51.130;13.658;2022-12-24T11:13:32;12.18;;;11.15;;
76731;SDS011;65656;51.130;13.658;2022-12-24T11:17:39;9.80;;;9.07;;
76731;SDS011;65656;51.130;13.658;2022-12-24T11:21:41;11.38;;;6.00;;
76731;SDS011;65656;51.130;13.658;2022-12-24T11:25:45;7.60;;;5.57;;
76731;SDS011;65656;51.130;13.658;2022-12-24T11:29:51;9.43;;;8.65;;
76731;SDS011;65656;51.130;13.658;2022-12-24T11:33:52;6.05;;;4.80;;
76731;SDS011;65656;51.130;13.658;2022-12-24T11:38:07;7.47;;;6.75;;
76731;SDS011;65656;51.130;13.658;2022-12-24T11:42:19;10.30;;;9.48;;
76731;SDS011;65656;51.130;13.658;2022-12-24T11:46:36;10.65;;;9.77;;
76731;SDS011;65656;51.130;13.658;2022-12-24T11:50:39;9.90;;;9.20;;
76731;SDS011;65656;51.130;13.658;2022-12-24T11:54:42;7.32;;;6.63;;
76731;SDS011;65656;51.130;13.658;2022-12-24T11:58:52;5.75;;;4.90;;
76731;SDS011;65656;51.130;13.658;2022-12-24T12:02:59;9.10;;;8.27;;
76731;SDS011;65656;51.130;13.658;2022-12-24T12:07:04;7.70;;;6.95;;
76731;SDS011;65656;51.130;13.658;2022-12-24T12:11:15;17.83;;;16.63;;
76731;SDS011;65656;51.130;13.658;2022-12-24T12:15:18;7.97;;;7.35;;
76731;SDS011;65656;51.130;13.658;2022-12-24T12:19:23;6.45;;;5.72;;
76731;SDS011;65656;51.130;13.658;2022-12-24T12:23:29;14.65;;;13.40;;
76731;SDS011;65656;51.130;13.658;2022-12-24T12:27:34;12.82;;;11.77;;
76731;SDS011;65656;51.130;13.658;2022-12-24T12:31:40;10.88;;;9.80;;
76731;SDS011;65656;51.130;13.658;2022-12-24T12:35:46;7.70;;;7.05;;
76731;SDS011;65656;51.130;13.658;2022-12-24T12:39:49;11.20;;;10.25;;
76731;SDS011;65656;51.130;13.658;2022-12-24T12:43:55;13.48;;;12.55;;
76731;SDS011;65656;51.130;13.658;2022-12-24T12:48:12;9.45;;;8.13;;
76731;SDS011;65656;51.130;13.658;2022-12-24T12:52:26;9.13;;;8.55;;
76731;SDS011;65656;51.130;13.658;2022-12-24T12:56:40;9.65;;;8.73;;
76731;SDS011;65656;51.130;13.658;2022-12-24T13:04:54;8.93;;;6.72;;
76731;SDS011;65656;51.130;13.658;2022-12-24T13:09:14;11.57;;;9.70;;
76731;SDS011;65656;51.130;13.658;2022-12-24T13:13:40;8.32;;;5.38;;
76731;SDS011;65656;51.130;13.658;2022-12-24T13:22:22;10.52;;;9.80;;
76731;SDS011;65656;51.130;13.658;2022-12-24T13:26:25;8.60;;;8.00;;
76731;SDS011;65656;51.130;13.658;2022-12-24T13:30:34;9.38;;;5.00;;
76731;SDS011;65656;51.130;13.658;2022-12-24T13:34:37;7.97;;;7.35;;
76731;SDS011;65656;51.130;13.658;2022-12-24T13:38:40;8.55;;;7.72;;
76731;SDS011;65656;51.130;13.658;2022-12-24T13:42:50;8.77;;;6.57;;
76731;SDS011;65656;51.130;13.658;2022-12-24T13:51:18;16.60;;;15.50;;
76731;SDS011;65656;51.130;13.658;2022-12-24T13:55:24;9.57;;;8.88;;
76731;SDS011;65656;51.130;13.658;2022-12-24T13:59:29;8.75;;;7.95;;
76731;SDS011;65656;51.130;13.658;2022-12-24T14:03:40;7.90;;;7.25;;
76731;SDS011;65656;51.130;13.658;2022-12-24T14:07:44;5.53;;;5.05;;
76731;SDS011;65656;51.130;13.658;2022-12-24T14:16:29;14.15;;;13.05;;
76731;SDS011;65656;51.130;13.658;2022-12-24T14:20:41;11.93;;;10.77;;
76731;SDS011;65656;51.130;13.658;2022-12-24T14:24:45;8.02;;;6.53;;
76731;SDS011;65656;51.130;13.658;2022-12-24T14:28:52;8.50;;;7.13;;
76731;SDS011;65656;51.130;13.658;2022-12-24T14:32:58;9.57;;;7.70;;
76731;SDS011;65656;51.130;13.658;2022-12-24T14:37:00;8.10;;;6.20;;
76731;SDS011;65656;51.130;13.658;2022-12-24T14:41:05;12.07;;;11.13;;
76731;SDS011;65656;51.130;13.658;2022-12-24T14:45:17;9.38;;;8.85;;
76731;SDS011;65656;51.130;13.658;2022-12-24T14:49:36;7.93;;;6.82;;
76731;SDS011;65656;51.130;13.658;2022-12-24T14:54:00;13.13;;;12.32;;
76731;SDS011;65656;51.130;13.658;2022-12-24T14:58:20;11.80;;;11.07;;
76731;SDS011;65656;51.130;13.658;2022-12-24T15:02:39;11.20;;;10.30;;
76731;SDS011;65656;51.130;13.658;2022-12-24T15:06:47;11.52;;;10.68;;
76731;SDS011;65656;51.130;13.658;2022-12-24T15:10:52;11.57;;;10.73;;
76731;SDS011;65656;51.130;13.658;2022-12-24T15:14:55;12.18;;;11.38;;
76731;SDS011;65656;51.130;13.658;2022-12-24T15:18:58;9.10;;;8.30;;
76731;SDS011;65656;51.130;13.658;2022-12-24T15:23:02;15.27;;;13.80;;
76731;SDS011;65656;51.130;13.658;2022-12-24T15:27:11;12.88;;;11.57;;
76731;SDS011;65656;51.130;13.658;2022-12-24T15:31:16;10.43;;;9.60;;
76731;SDS011;65656;51.130;13.658;2022-12-24T15:35:29;11.32;;;10.18;;
76731;SDS011;65656;51.130;13.658;2022-12-24T15:39:33;14.38;;;13.25;;
76731;SDS011;65656;51.130;13.658;2022-12-24T15:43:37;14.45;;;13.55;;
76731;SDS011;65656;51.130;13.658;2022-12-24T15:47:42;10.02;;;9.18;;
76731;SDS011;65656;51.130;13.658;2022-12-24T15:51:48;14.93;;;13.45;;
76731;SDS011;65656;51.130;13.658;2022-12-24T15:56:04;7.32;;;6.75;;
76731;SDS011;65656;51.130;13.658;2022-12-24T16:00:18;7.70;;;7.18;;
76731;SDS011;65656;51.130;13.658;2022-12-24T16:04:22;11.48;;;10.77;;
76731;SDS011;65656;51.130;13.658;2022-12-24T16:08:27;24.20;;;19.08;;
76731;SDS011;65656;51.130;13.658;2022-12-24T16:12:31;9.82;;;9.20;;
76731;SDS011;65656;51.130;13.658;2022-12-24T16:16:34;11.55;;;10.93;;
76731;SDS011;65656;51.130;13.658;2022-12-24T16:20:37;8.60;;;8.05;;
76731;SDS011;65656;51.130;13.658;2022-12-24T16:24:39;9.85;;;9.32;;
76731;SDS011;65656;51.130;13.658;2022-12-24T16:28:42;9.50;;;8.88;;
76731;SDS011;65656;51.130;13.658;2022-12-24T16:32:43;8.13;;;7.55;;
76731;SDS011;65656;51.130;13.658;2022-12-24T16:36:46;9.63;;;9.07;;
76731;SDS011;65656;51.130;13.658;2022-12-24T16:40:47;17.60;;;16.42;;
76731;SDS011;65656;51.130;13.658;2022-12-24T16:44:51;12.70;;;11.48;;
76731;SDS011;65656;51.130;13.658;2022-12-24T16:48:53;13.77;;;12.77;;
76731;SDS011;65656;51.130;13.658;2022-12-24T16:52:54;10.38;;;9.63;;
76731;SDS011;65656;51.130;13.658;2022-12-24T16:56:56;12.75;;;11.93;;
76731;SDS011;65656;51.130;13.658;2022-12-24T17:00:59;17.55;;;16.08;;
76731;SDS011;65656;51.130;13.658;2022-12-24T17:05:07;9.65;;;9.00;;
76731;SDS011;65656;51.130;13.658;2022-12-24T17:09:09;7.22;;;6.68;;
76731;SDS011;65656;51.130;13.658;2022-12-24T17:13:12;12.05;;;11.40;;
76731;SDS011;65656;51.130;13.658;2022-12-24T17:17:18;13.15;;;12.32;;
76731;SDS011;65656;51.130;13.658;2022-12-24T17:21:22;14.25;;;13.18;;
76731;SDS011;65656;51.130;13.658;2022-12-24T17:25:24;11.00;;;10.07;;
76731;SDS011;65656;51.130;13.658;2022-12-24T17:29:25;14.93;;;13.77;;
76731;SDS011;65656;51.130;13.658;2022-12-24T17:33:28;10.82;;;10.13;;
76731;SDS011;65656;51.130;13.658;2022-12-24T17:37:29;22.45;;;21.02;;
76731;SDS011;65656;51.130;13.658;2022-12-24T17:41:31;16.90;;;15.88;;
76731;SDS011;65656;51.130;13.658;2022-12-24T17:45:32;19.58;;;18.45;;
76731;SDS011;65656;51.130;13.658;2022-12-24T17:49:35;24.05;;;22.40;;
76731;SDS011;65656;51.130;13.658;2022-12-24T17:53:37;22.83;;;21.20;;
76731;SDS011;65656;51.130;13.658;2022-12-24T17:57:40;22.17;;;20.38;;
76731;SDS011;65656;51.130;13.658;2022-12-24T18:01:41;30.83;;;28.65;;
76731;SDS011;65656;51.130;13.658;2022-12-24T18:05:44;29.10;;;26.58;;
76731;SDS011;65656;51.130;13.658;2022-12-24T18:09:46;25.35;;;23.45;;
76731;SDS011;65656;51.130;13.658;2022-12-24T18:13:48;14.18;;;12.75;;
76731;SDS011;65656;51.130;13.658;2022-12-24T18:17:50;21.38;;;19.42;;
76731;SDS011;65656;51.130;13.658;2022-12-24T18:21:53;29.42;;;27.08;;
76731;SDS011;65656;51.130;13.658;2022-12-24T18:25:59;21.30;;;19.50;;
76731;SDS011;65656;51.130;13.658;2022-12-24T18:30:02;27.17;;;24.77;;
76731;SDS011;65656;51.130;13.658;2022-12-24T18:34:05;34.90;;;32.40;;
76731;SDS011;65656;51.130;13.658;2022-12-24T18:38:10;26.75;;;24.67;;
76731;SDS011;65656;51.130;13.658;2022-12-24T18:42:12;13.48;;;12.23;;
76731;SDS011;65656;51.130;13.658;2022-12-24T18:46:15;18.20;;;16.35;;
76731;SDS011;65656;51.130;13.658;2022-12-24T18:50:18;14.63;;;11.93;;
76731;SDS011;65656;51.130;13.658;2022-12-24T18:54:20;18.42;;;16.88;;
76731;SDS011;65656;51.130;13.658;2022-12-24T18:58:22;17.05;;;14.65;;
76731;SDS011;65656;51.130;13.658;2022-12-24T19:02:23;23.75;;;21.60;;
76731;SDS011;65656;51.130;13.658;2022-12-24T19:06:25;28.77;;;26.73;;
76731;SDS011;65656;51.130;13.658;2022-12-24T19:10:28;18.90;;;17.75;;
76731;SDS011;65656;51.130;13.658;2022-12-24T19:14:29;29.40;;;27.25;;
76731;SDS011;65656;51.130;13.658;2022-12-24T19:18:31;12.43;;;11.32;;
76731;SDS011;65656;51.130;13.658;2022-12-24T19:22:33;12.55;;;11.30;;
76731;SDS011;65656;51.130;13.658;2022-12-24T19:26:35;27.77;;;25.85;;
76731;SDS011;65656;51.130;13.658;2022-12-24T19:30:37;11.65;;;10.60;;
76731;SDS011;65656;51.130;13.658;2022-12-24T19:34:41;9.35;;;8.45;;
76731;SDS011;65656;51.130;13.658;2022-12-24T19:38:42;18.88;;;17.30;;
76731;SDS011;65656;51.130;13.658;2022-12-24T19:42:45;12.27;;;11.23;;
76731;SDS011;65656;51.130;13.658;2022-12-24T19:46:47;11.18;;;10.13;;
76731;SDS011;65656;51.130;13.658;2022-12-24T19:50:48;12.75;;;7.82;;
76731;SDS011;65656;51.130;13.658;2022-12-24T19:54:50;7.95;;;7.28;;
76731;SDS011;65656;51.130;13.658;2022-12-24T19:58:53;22.95;;;21.27;;
76731;SDS011;65656;51.130;13.658;2022-12-24T20:02:54;7.97;;;7.25;;
76731;SDS011;65656;51.130;13.658;2022-12-24T20:06:56;9.98;;;7.90;;
76731;SDS011;65656;51.130;13.658;2022-12-24T20:11:02;13.75;;;8.50;;
76731;SDS011;65656;51.130;13.658;2022-12-24T20:15:07;9.60;;;8.65;;
76731;SDS011;65656;51.130;13.658;2022-12-24T20:19:10;11.43;;;9.35;;
76731;SDS011;65656;51.130;13.658;2022-12-24T20:23:13;13.95;;;11.93;;
76731;SDS011;65656;51.130;13.658;2022-12-24T20:27:14;16.05;;;14.48;;
76731;SDS011;65656;51.130;13.658;2022-12-24T20:31:18;16.85;;;14.95;;
76731;SDS011;65656;51.130;13.658;2022-12-24T20:35:21;12.93;;;11.80;;
76731;SDS011;65656;51.130;13.658;2022-12-24T20:39:23;14.88;;;12.55;;
76731;SDS011;65656;51.130;13.658;2022-12-24T20:43:25;16.70;;;15.18;;
76731;SDS011;65656;51.130;13.658;2022-12-24T20:47:35;23.50;;;21.65;;
76731;SDS011;65656;51.130;13.658;2022-12-24T20:51:37;19.15;;;17.70;;
76731;SDS011;65656;51.130;13.658;2022-12-24T20:55:38;16.45;;;14.88;;
76731;SDS011;65656;51.130;13.658;2022-12-24T20:59:40;15.13;;;13.95;;
76731;SDS011;65656;51.130;13.658;2022-12-24T21:03:43;16.95;;;15.70;;
76731;SDS011;65656;51.130;13.658;2022-12-24T21:07:45;13.18;;;12.30;;
76731;SDS011;65656;51.130;13.658;2022-12-24T21:11:46;13.90;;;12.57;;
76731;SDS011;65656;51.130;13.658;2022-12-24T21:15:48;19.77;;;18.02;;
76731;SDS011;65656;51.130;13.658;2022-12-24T21:19:51;18.48;;;15.05;;
76731;SDS011;65656;51.130;13.658;2022-12-24T21:23:52;11.65;;;8.98;;
76731;SDS011;65656;51.130;13.658;2022-12-24T21:27:54;13.00;;;9.98;;
76731;SDS011;65656;51.130;13.658;2022-12-24T21:31:56;18.20;;;16.88;;
76731;SDS011;65656;51.130;13.658;2022-12-24T21:35:59;17.38;;;16.20;;
76731;SDS011;65656;51.130;13.658;2022-12-24T21:40:00;12.68;;;11.27;;
76731;SDS011;65656;51.130;13.658;2022-12-24T21:44:02;17.77;;;14.73;;
76731;SDS011;65656;51.130;13.658;2022-12-24T21:48:03;18.90;;;13.40;;
76731;SDS011;65656;51.130;13.658;2022-12-24T21:52:06;13.90;;;12.57;;
76731;SDS011;65656;51.130;13.658;2022-12-24T21:56:08;12.75;;;10.75;;
76731;SDS011;65656;51.130;13.658;2022-12-24T22:00:11;17.48;;;14.50;;
76731;SDS011;65656;51.130;13.658;2022-12-24T22:04:13;12.48;;;10.85;;
76731;SDS011;65656;51.130;13.658;2022-12-24T22:08:16;17.70;;;16.00;;
76731;SDS011;65656;51.130;13.658;2022-12-24T22:12:18;24.77;;;22.83;;
76731;SDS011;65656;51.130;13.658;2022-12-24T22:16:19;16.08;;;14.00;;
76731;SDS011;65656;51.130;13.658;2022-12-24T22:20:21;17.27;;;13.90;;
76731;SDS011;65656;51.130;13.658;2022-12-24T22:24:24;27.13;;;21.27;;
76731;SDS011;65656;51.130;13.658;2022-12-24T22:28:26;75.65;;;48.25;;
76731;SDS011;65656;51.130;13.658;2022-12-24T22:32:28;92.72;;;53.17;;
76731;SDS011;65656;51.130;13.658;2022-12-24T22:36:29;141.90;;;72.43;;
76731;SDS011;65656;51.130;13.658;2022-12-24T22:40:32;28.75;;;17.50;;
76731;SDS011;65656;51.130;13.658;2022-12-24T22:44:33;28.55;;;18.75;;
76731;SDS011;65656;51.130;13.658;2022-12-24T22:48:35;15.82;;;12.07;;
76731;SDS011;65656;51.130;13.658;2022-12-24T22:52:37;21.23;;;19.40;;
76731;SDS011;65656;51.130;13.658;2022-12-24T22:56:39;17.30;;;15.23;;
76731;SDS011;65656;51.130;13.658;2022-12-24T23:00:43;17.17;;;15.43;;
76731;SDS011;65656;51.130;13.658;2022-12-24T23:04:45;14.88;;;13.57;;
76731;SDS011;65656;51.130;13.658;2022-12-24T23:08:46;16.27;;;14.93;;
76731;SDS011;65656;51.130;13.658;2022-12-24T23:12:49;19.40;;;17.73;;
76731;SDS011;65656;51.130;13.658;2022-12-24T23:16:50;25.02;;;23.08;;
76731;SDS011;65656;51.130;13.658;2022-12-24T23:20:52;12.60;;;11.55;;
76731;SDS011;65656;51.130;13.658;2022-12-24T23:24:53;13.32;;;11.98;;
76731;SDS011;65656;51.130;13.658;2022-12-24T23:28:56;18.45;;;16.83;;
76731;SDS011;65656;51.130;13.658;2022-12-24T23:32:57;19.15;;;17.23;;
76731;SDS011;65656;51.130;13.658;2022-12-24T23:36:59;15.90;;;13.15;;
76731;SDS011;65656;51.130;13.658;2022-12-24T23:41:02;13.48;;;12.30;;
76731;SDS011;65656;51.130;13.658;2022-12-24T23:45:06;14.73;;;10.88;;
76731;SDS011;65656;51.130;13.658;2022-12-24T23:49:10;18.17;;;11.48;;
76731;SDS011;65656;51.130;13.658;2022-12-24T23:53:14;14.23;;;12.88;;
76731;SDS011;65656;51.130;13.658;2022-12-24T23:57:16;14.40;;;12.90;;
